Terminal Aerodrome Forecast
Issued by NWS Wilmington, NC

Home | Current Version | Previous Version | Text Only | Print | Product List | Glossary On
Versions: 1 2 3 4 5 6 7 8 9 10 11 12 13 14 15 16 17 18
000
FTUS42 KILM 291720
TAFLBT
TAF
KLBT 291720Z 2918/3018 10011G20KT P6SM VCTS FEW015 SCT030CB BKN090
     FM292100 13006KT P6SM VCSH SCT040 SCT110 SCT250
     FM301000 13002KT 1SM BR BKN003
     FM301400 16005KT P6SM SCT025 SCT250=

USA.gov is the U.S. government's official web portal to all federal, state and local government web resources and services.